createdAt,value
2017-10-28T00:00:47.366Z,5.35
2017-10-28T00:01:53.194Z,7.40
2017-10-28T00:03:00.136Z,5.53
2017-10-28T00:04:05.959Z,6.72
2017-10-28T00:05:11.990Z,4.18
2017-10-28T00:06:18.052Z,3.33
2017-10-28T00:07:24.109Z,4.43
2017-10-28T00:08:30.140Z,6.85
2017-10-28T00:09:36.187Z,6.05
2017-10-28T00:10:43.163Z,5.43
2017-10-28T00:11:51.028Z,4.72
2017-10-28T00:12:57.078Z,5.87
2017-10-28T00:14:05.413Z,4.68
2017-10-28T00:15:16.487Z,4.65
2017-10-28T00:16:22.510Z,8.52
2017-10-28T00:17:28.576Z,3.70
2017-10-28T00:18:34.610Z,4.85
2017-10-28T00:19:40.731Z,6.87
2017-10-28T00:20:46.773Z,2.83
2017-10-28T00:21:53.062Z,2.85
2017-10-28T00:22:59.128Z,4.55
2017-10-28T00:24:04.853Z,5.78
2017-10-28T00:25:10.692Z,4.65
2017-10-28T00:26:16.549Z,5.82
2017-10-28T00:27:22.610Z,3.40
2017-10-28T00:28:28.665Z,2.55
2017-10-28T00:29:34.701Z,2.10
2017-10-28T00:30:46.203Z,2.85
2017-10-28T00:31:57.632Z,4.82
2017-10-28T00:33:09.385Z,5.53
2017-10-28T00:34:20.081Z,3.15
2017-10-28T00:35:31.602Z,5.65
2017-10-28T00:36:37.260Z,10.10
2017-10-28T00:37:43.339Z,2.40
2017-10-28T00:38:49.356Z,3.92
2017-10-28T00:39:55.409Z,5.90
2017-10-28T00:41:01.466Z,6.78
2017-10-28T00:42:07.180Z,5.50
2017-10-28T00:43:13.201Z,3.28
2017-10-28T00:44:19.220Z,4.55
2017-10-28T00:45:25.242Z,3.10
2017-10-28T00:46:31.253Z,4.18
2017-10-28T00:47:37.332Z,2.95
2017-10-28T00:48:43.408Z,4.32
2017-10-28T00:49:49.428Z,3.75
2017-10-28T00:50:55.286Z,4.18
2017-10-28T00:52:01.328Z,4.45
2017-10-28T00:53:08.352Z,4.72
2017-10-28T00:54:14.372Z,3.83
2017-10-28T00:55:20.417Z,3.95
2017-10-28T00:56:26.734Z,3.50
2017-10-28T00:57:32.485Z,5.28
2017-10-28T00:58:38.544Z,4.37
2017-10-28T00:59:44.567Z,7.50
2017-10-28T01:00:50.224Z,4.87
2017-10-28T01:01:56.251Z,3.28
2017-10-28T01:03:02.301Z,4.55
2017-10-28T01:04:08.158Z,3.03
2017-10-28T01:05:14.205Z,3.78
2017-10-28T01:06:20.231Z,4.85
2017-10-28T01:07:26.293Z,7.47
2017-10-28T01:08:32.332Z,5.15
2017-10-28T01:09:38.378Z,3.65
2017-10-28T01:10:44.428Z,3.67
2017-10-28T01:11:50.442Z,2.20
2017-10-28T01:12:56.489Z,4.40
2017-10-28T01:14:02.511Z,4.43
2017-10-28T01:15:08.536Z,3.35
2017-10-28T01:16:14.568Z,5.25
2017-10-28T01:17:21.503Z,5.15
2017-10-28T01:18:27.530Z,2.67
2017-10-28T01:19:33.190Z,4.07
2017-10-28T01:20:39.263Z,3.30
2017-10-28T01:21:44.985Z,4.87
2017-10-28T01:22:50.861Z,5.62
2017-10-28T01:23:56.890Z,3.25
2017-10-28T01:25:02.944Z,3.50
2017-10-28T01:26:09.084Z,4.60
2017-10-28T01:27:15.239Z,3.25
2017-10-28T01:28:21.273Z,5.10
2017-10-28T01:29:26.949Z,2.53
2017-10-28T01:30:32.998Z,5.60
2017-10-28T01:31:39.116Z,3.67
2017-10-28T01:32:45.216Z,4.47
2017-10-28T01:33:51.242Z,3.37
2017-10-28T01:34:57.306Z,2.92
2017-10-28T01:36:03.332Z,4.95
2017-10-28T01:37:09.408Z,3.50
2017-10-28T01:38:15.452Z,3.87
2017-10-28T01:39:21.482Z,4.57
2017-10-28T01:40:29.741Z,3.37
2017-10-28T01:41:35.798Z,3.80
2017-10-28T01:42:41.848Z,2.85
2017-10-28T01:43:50.174Z,5.03
2017-10-28T01:44:56.208Z,4.90
2017-10-28T01:46:02.237Z,4.15
2017-10-28T01:47:08.873Z,1.77
2017-10-28T01:48:14.908Z,2.10
2017-10-28T01:49:20.930Z,2.20
2017-10-28T01:50:27.194Z,5.37
2017-10-28T01:51:33.231Z,4.53
2017-10-28T01:52:39.348Z,2.78
2017-10-28T01:53:45.435Z,5.50
2017-10-28T01:54:51.451Z,4.20
2017-10-28T01:55:57.470Z,3.78
2017-10-28T01:57:03.514Z,2.40
2017-10-28T01:58:09.562Z,4.57
2017-10-28T01:59:26.161Z,3.87
2017-10-28T02:00:43.636Z,2.03
2017-10-28T02:01:50.950Z,2.45
2017-10-28T02:02:57.024Z,3.15
2017-10-28T02:04:03.071Z,1.98
2017-10-28T02:05:08.893Z,3.70
2017-10-28T02:06:14.929Z,4.40
2017-10-28T02:07:20.986Z,5.87
2017-10-28T02:08:27.017Z,1.90
2017-10-28T02:09:33.045Z,3.08
2017-10-28T02:10:39.072Z,4.43
2017-10-28T02:11:45.203Z,3.35
2017-10-28T02:12:51.261Z,3.22
2017-10-28T02:13:57.330Z,2.85
2017-10-28T02:15:03.354Z,2.55
2017-10-28T02:16:09.396Z,4.65
2017-10-28T02:17:15.450Z,1.95
2017-10-28T02:18:21.490Z,4.28
2017-10-28T02:19:27.547Z,4.47
2017-10-28T02:20:33.591Z,2.45
2017-10-28T02:21:39.321Z,4.90
2017-10-28T02:22:45.399Z,3.65
2017-10-28T02:23:51.428Z,3.85
2017-10-28T02:24:57.525Z,3.05
2017-10-28T02:26:03.578Z,4.28
2017-10-28T02:27:09.626Z,3.87
2017-10-28T02:28:15.688Z,3.95
2017-10-28T02:29:21.839Z,3.05
2017-10-28T02:30:27.913Z,6.68
2017-10-28T02:31:33.967Z,3.10
2017-10-28T02:32:40.229Z,5.18
2017-10-28T02:33:46.287Z,3.30
2017-10-28T02:34:52.321Z,2.83
2017-10-28T02:35:58.430Z,5.93
2017-10-28T02:37:04.484Z,6.15
2017-10-28T02:38:10.730Z,4.18
2017-10-28T02:39:16.765Z,5.95
2017-10-28T02:40:22.818Z,9.50
2017-10-28T02:41:28.835Z,6.40
2017-10-28T02:42:35.036Z,4.90
2017-10-28T02:43:41.066Z,6.45
2017-10-28T02:44:47.116Z,4.78
2017-10-28T02:45:53.149Z,6.30
2017-10-28T02:46:59.193Z,5.82
2017-10-28T02:48:05.273Z,4.78
2017-10-28T02:49:11.311Z,4.20
2017-10-28T02:50:17.379Z,2.78
2017-10-28T02:51:23.400Z,6.20
2017-10-28T02:52:32.184Z,5.90
2017-10-28T02:53:38.241Z,4.70
2017-10-28T02:54:44.277Z,5.53
2017-10-28T02:55:50.319Z,8.93
2017-10-28T02:56:56.348Z,3.92
2017-10-28T02:58:02.447Z,2.60
2017-10-28T02:59:08.487Z,6.20
2017-10-28T03:00:13.817Z,5.18
2017-10-28T03:01:19.256Z,5.75
2017-10-28T03:02:25.272Z,3.70
2017-10-28T03:03:30.968Z,6.55
2017-10-28T03:04:37.028Z,4.62
2017-10-28T03:05:43.323Z,3.47
2017-10-28T03:06:49.945Z,5.72
2017-10-28T03:07:55.666Z,2.00
2017-10-28T03:09:01.769Z,7.20
2017-10-28T03:10:07.891Z,3.08
2017-10-28T03:11:13.195Z,5.62
2017-10-28T03:12:19.237Z,3.78
2017-10-28T03:13:25.278Z,3.62
2017-10-28T03:14:30.981Z,3.87
2017-10-28T03:15:36.990Z,2.37
2017-10-28T03:16:43.062Z,3.25
2017-10-28T03:17:49.117Z,3.47
2017-10-28T03:18:55.234Z,7.70
2017-10-28T03:20:01.226Z,4.05
2017-10-28T03:21:07.287Z,6.85
2017-10-28T03:22:14.901Z,2.95
2017-10-28T03:23:22.210Z,4.32
2017-10-28T03:24:28.281Z,4.78
2017-10-28T03:25:34.357Z,5.85
2017-10-28T03:26:40.445Z,4.78
2017-10-28T03:27:46.804Z,3.25
2017-10-28T03:28:52.874Z,3.45
2017-10-28T03:29:58.534Z,3.72
2017-10-28T03:31:04.555Z,3.60
2017-10-28T03:32:10.600Z,4.18
2017-10-28T03:33:16.650Z,5.37
2017-10-28T03:34:22.670Z,2.42
2017-10-28T03:35:28.685Z,3.65
2017-10-28T03:36:34.705Z,3.33
2017-10-28T03:37:40.724Z,3.83
2017-10-28T03:38:46.810Z,3.75
2017-10-28T03:39:52.841Z,3.45
2017-10-28T03:40:58.888Z,2.75
2017-10-28T03:42:04.929Z,3.40
2017-10-28T03:43:15.406Z,3.65
2017-10-28T03:44:24.885Z,3.62
2017-10-28T03:45:30.935Z,2.25
2017-10-28T03:46:36.977Z,4.35
2017-10-28T03:47:43.063Z,6.15
2017-10-28T03:48:49.140Z,4.62
2017-10-28T03:49:55.205Z,4.10
2017-10-28T03:51:01.263Z,3.80
2017-10-28T03:52:07.290Z,3.40
2017-10-28T03:53:13.359Z,3.35
2017-10-28T03:54:19.407Z,5.07
2017-10-28T03:55:25.431Z,5.95
2017-10-28T03:56:31.469Z,3.45
2017-10-28T03:57:38.314Z,3.12
2017-10-28T03:58:44.382Z,9.50
2017-10-28T03:59:50.407Z,2.78
2017-10-28T04:00:58.539Z,5.10
2017-10-28T04:02:11.081Z,5.05
2017-10-28T04:03:18.051Z,4.03
2017-10-28T04:04:24.094Z,4.47
2017-10-28T04:05:30.105Z,5.87
2017-10-28T04:06:36.114Z,4.00
2017-10-28T04:07:42.186Z,2.87
2017-10-28T04:08:48.095Z,2.92
2017-10-28T04:09:54.159Z,3.37
2017-10-28T04:11:01.818Z,9.40
2017-10-28T04:12:07.865Z,4.25
2017-10-28T04:13:13.881Z,3.58
2017-10-28T04:14:19.938Z,2.83
2017-10-28T04:15:26.017Z,4.30
2017-10-28T04:16:32.059Z,5.82
2017-10-28T04:17:37.945Z,5.40
2017-10-28T04:18:44.055Z,4.07
2017-10-28T04:19:52.397Z,3.78
2017-10-28T04:20:58.447Z,4.60
2017-10-28T04:22:04.482Z,7.43
2017-10-28T04:23:10.526Z,3.67
2017-10-28T04:24:16.579Z,5.07
2017-10-28T04:25:22.894Z,2.20
2017-10-28T04:26:28.913Z,6.78
2017-10-28T04:27:34.936Z,5.03
2017-10-28T04:28:40.966Z,3.80
2017-10-28T04:29:47.021Z,2.85
2017-10-28T04:30:53.022Z,3.58
2017-10-28T04:31:59.080Z,2.95
2017-10-28T04:33:04.754Z,2.30
2017-10-28T04:34:10.446Z,4.20
2017-10-28T04:35:16.130Z,3.17
2017-10-28T04:36:27.112Z,4.00
2017-10-28T04:37:33.153Z,3.90
2017-10-28T04:38:39.181Z,3.25
2017-10-28T04:39:44.876Z,5.32
2017-10-28T04:40:50.915Z,3.92
2017-10-28T04:41:56.987Z,3.92
2017-10-28T04:43:03.021Z,9.02
2017-10-28T04:44:09.028Z,2.92
2017-10-28T04:45:15.442Z,6.57
2017-10-28T04:46:21.499Z,3.70
2017-10-28T04:47:27.528Z,2.35
2017-10-28T04:48:33.567Z,5.78
2017-10-28T04:49:39.604Z,3.62
2017-10-28T04:50:45.623Z,3.75
2017-10-28T04:51:51.661Z,3.53
2017-10-28T04:52:57.719Z,4.55
2017-10-28T04:54:03.758Z,2.75
2017-10-28T04:55:09.803Z,3.28
2017-10-28T04:56:15.831Z,4.55
2017-10-28T04:57:21.868Z,4.93
2017-10-28T04:58:28.591Z,4.70
2017-10-28T04:59:35.457Z,3.35
2017-10-28T05:00:41.319Z,2.17
2017-10-28T05:01:47.369Z,2.80
2017-10-28T05:02:53.405Z,2.85
2017-10-28T05:03:59.477Z,2.80
2017-10-28T05:05:05.537Z,2.72
2017-10-28T05:06:18.328Z,3.58
2017-10-28T05:07:27.601Z,3.22
2017-10-28T05:08:33.631Z,2.37
2017-10-28T05:09:39.694Z,3.50
2017-10-28T05:10:45.749Z,4.15
2017-10-28T05:11:51.412Z,2.92
2017-10-28T05:12:58.267Z,4.65
2017-10-28T05:14:03.929Z,2.10
2017-10-28T05:15:09.982Z,3.10
2017-10-28T05:16:15.638Z,2.53
2017-10-28T05:17:24.680Z,4.60
2017-10-28T05:18:30.799Z,3.80
2017-10-28T05:19:36.849Z,2.22
2017-10-28T05:20:42.891Z,4.32
2017-10-28T05:21:52.452Z,2.17
2017-10-28T05:22:58.500Z,3.10
2017-10-28T05:24:04.529Z,2.45
2017-10-28T05:25:10.038Z,1.98
2017-10-28T05:26:19.050Z,3.37
2017-10-28T05:27:26.654Z,3.47
2017-10-28T05:28:32.666Z,1.67
2017-10-28T05:29:38.863Z,3.58
2017-10-28T05:30:44.912Z,3.97
2017-10-28T05:31:50.963Z,3.95
2017-10-28T05:32:56.985Z,2.62
2017-10-28T05:34:03.031Z,4.28
2017-10-28T05:35:09.099Z,6.62
2017-10-28T05:36:15.308Z,1.92
2017-10-28T05:37:21.357Z,4.40
2017-10-28T05:38:27.387Z,2.55
2017-10-28T05:39:33.401Z,4.12
2017-10-28T05:40:39.465Z,2.33
2017-10-28T05:41:44.790Z,4.20
2017-10-28T05:42:50.436Z,2.17
2017-10-28T05:43:56.463Z,2.10
2017-10-28T05:45:02.521Z,2.90
2017-10-28T05:46:07.842Z,2.45
2017-10-28T05:47:12.968Z,1.90
2017-10-28T05:48:18.829Z,1.90
2017-10-28T05:49:24.850Z,4.15
2017-10-28T05:50:30.668Z,4.55
2017-10-28T05:51:36.342Z,2.97
2017-10-28T05:52:42.001Z,7.87
2017-10-28T05:53:48.109Z,2.58
2017-10-28T05:54:54.137Z,1.45
2017-10-28T05:56:00.217Z,3.53
2017-10-28T05:57:05.546Z,1.83
2017-10-28T05:58:11.236Z,2.60
2017-10-28T05:59:17.261Z,1.58
2017-10-28T06:00:23.335Z,2.45
2017-10-28T06:01:28.464Z,4.20
2017-10-28T06:02:34.490Z,3.47
2017-10-28T06:03:43.430Z,1.45
2017-10-28T06:04:52.940Z,1.98
2017-10-28T06:05:59.039Z,1.95
2017-10-28T06:07:05.063Z,3.72
2017-10-28T06:08:11.096Z,4.85
2017-10-28T06:09:17.133Z,3.90
2017-10-28T06:10:23.227Z,3.00
2017-10-28T06:11:29.286Z,2.05
2017-10-28T06:12:37.643Z,3.37
2017-10-28T06:13:43.703Z,2.97
2017-10-28T06:14:49.768Z,3.22
2017-10-28T06:15:55.839Z,3.55
2017-10-28T06:17:01.891Z,1.45
2017-10-28T06:18:07.949Z,2.45
2017-10-28T06:19:14.003Z,2.83
2017-10-28T06:20:20.081Z,2.33
2017-10-28T06:21:26.425Z,5.25
2017-10-28T06:22:32.464Z,4.05
2017-10-28T06:23:38.547Z,3.55
2017-10-28T06:24:44.690Z,2.83
2017-10-28T06:25:50.752Z,3.15
2017-10-28T06:26:57.774Z,3.97
2017-10-28T06:28:03.461Z,2.92
2017-10-28T06:29:09.535Z,2.20
2017-10-28T06:30:15.701Z,2.03
2017-10-28T06:31:21.761Z,3.70
2017-10-28T06:32:27.808Z,2.62
2017-10-28T06:33:33.869Z,4.20
2017-10-28T06:34:39.916Z,5.53
2017-10-28T06:35:46.017Z,7.03
2017-10-28T06:36:52.061Z,2.50
2017-10-28T06:37:58.089Z,3.15
2017-10-28T06:39:03.745Z,1.80
2017-10-28T06:40:09.882Z,3.05
2017-10-28T06:41:15.951Z,4.22
2017-10-28T06:42:22.596Z,3.55
2017-10-28T06:43:28.802Z,2.42
2017-10-28T06:44:35.375Z,4.00
2017-10-28T06:45:41.907Z,2.85
2017-10-28T06:46:48.548Z,1.85
2017-10-28T06:47:55.005Z,5.65
2017-10-28T06:49:01.538Z,5.10
2017-10-28T06:50:08.704Z,7.87
2017-10-28T06:51:15.602Z,2.80
2017-10-28T06:52:22.317Z,6.00
2017-10-28T06:53:28.886Z,2.83
2017-10-28T06:54:35.269Z,4.93
2017-10-28T06:55:42.259Z,3.85
2017-10-28T06:56:48.801Z,4.00
2017-10-28T06:57:55.273Z,3.35
2017-10-28T06:59:03.624Z,3.22
2017-10-28T07:00:10.351Z,2.58
2017-10-28T07:01:16.574Z,3.83
2017-10-28T07:02:23.330Z,3.08
2017-10-28T07:03:29.789Z,5.65
2017-10-28T07:04:36.410Z,3.05
2017-10-28T07:05:42.845Z,2.80
2017-10-28T07:06:50.189Z,3.65
2017-10-28T07:07:56.654Z,2.50
2017-10-28T07:09:04.892Z,2.75
2017-10-28T07:10:11.270Z,4.28
2017-10-28T07:11:16.647Z,4.20
2017-10-28T07:12:24.497Z,3.37
2017-10-28T07:13:30.974Z,3.70
2017-10-28T07:14:37.620Z,5.22
2017-10-28T07:15:44.055Z,3.12
2017-10-28T07:16:50.595Z,4.62
2017-10-28T07:17:57.184Z,6.22
2017-10-28T07:19:02.889Z,3.17
2017-10-28T07:20:08.953Z,2.87
2017-10-28T07:21:15.242Z,4.78
2017-10-28T07:22:21.452Z,4.00
2017-10-28T07:23:28.023Z,4.05
2017-10-28T07:24:34.384Z,5.50
2017-10-28T07:25:41.135Z,2.08
2017-10-28T07:26:48.164Z,5.68
2017-10-28T07:27:54.498Z,4.32
2017-10-28T07:29:01.061Z,3.42
2017-10-28T07:30:07.601Z,3.80
2017-10-28T07:31:14.319Z,4.50
2017-10-28T07:32:23.089Z,3.30
2017-10-28T07:33:31.934Z,2.75
2017-10-28T07:34:39.018Z,1.95
2017-10-28T07:35:45.772Z,4.85
2017-10-28T07:36:52.509Z,3.17
2017-10-28T07:37:59.045Z,2.45
2017-10-28T07:39:04.534Z,5.07
2017-10-28T07:40:11.511Z,5.90
2017-10-28T07:41:18.158Z,4.62
2017-10-28T07:42:26.695Z,4.75
2017-10-28T07:43:33.130Z,3.65
2017-10-28T07:44:39.857Z,2.25
2017-10-28T07:45:46.345Z,3.40
2017-10-28T07:46:52.609Z,5.55
2017-10-28T07:47:59.314Z,2.47
2017-10-28T07:49:05.871Z,5.70
2017-10-28T07:50:13.789Z,3.10
2017-10-28T07:51:20.461Z,2.65
2017-10-28T07:52:27.857Z,6.72
2017-10-28T07:53:34.781Z,6.07
2017-10-28T07:54:41.418Z,3.20
2017-10-28T07:55:53.456Z,6.87
2017-10-28T07:56:59.805Z,3.60
2017-10-28T07:58:07.266Z,3.55
2017-10-28T07:59:13.735Z,3.33
2017-10-28T08:00:20.913Z,3.03
2017-10-28T08:01:27.849Z,2.47
2017-10-28T08:02:34.330Z,4.65
2017-10-28T08:03:46.473Z,4.37
2017-10-28T08:04:55.139Z,3.55
2017-10-28T08:06:06.223Z,3.00
2017-10-28T08:07:17.590Z,2.55
2017-10-28T08:08:24.560Z,3.20
2017-10-28T08:09:30.590Z,10.43
2017-10-28T08:10:36.643Z,4.32
2017-10-28T08:11:42.658Z,7.45
2017-10-28T08:12:48.722Z,3.35
2017-10-28T08:13:55.001Z,2.95
2017-10-28T08:15:02.198Z,4.60
2017-10-28T08:16:08.286Z,3.00
2017-10-28T08:17:13.636Z,4.35
2017-10-28T08:18:20.057Z,3.10
2017-10-28T08:19:26.181Z,3.95
2017-10-28T08:20:32.251Z,2.87
2017-10-28T08:21:38.255Z,3.75
2017-10-28T08:22:44.329Z,2.35
2017-10-28T08:23:50.358Z,6.28
2017-10-28T08:24:56.412Z,3.25
2017-10-28T08:26:02.518Z,2.60
2017-10-28T08:27:08.564Z,5.37
2017-10-28T08:28:14.704Z,2.25
2017-10-28T08:29:20.746Z,2.58
2017-10-28T08:30:26.776Z,3.50
2017-10-28T08:31:32.801Z,3.05
2017-10-28T08:32:38.871Z,4.55
2017-10-28T08:33:45.436Z,3.30
2017-10-28T08:34:51.494Z,4.93
2017-10-28T08:35:57.366Z,5.35
2017-10-28T08:37:03.478Z,3.12
2017-10-28T08:38:09.533Z,4.20
2017-10-28T08:39:15.597Z,6.35
2017-10-28T08:40:21.616Z,5.20
2017-10-28T08:41:27.645Z,2.92
2017-10-28T08:42:33.470Z,4.43
2017-10-28T08:43:39.512Z,4.60
2017-10-28T08:44:45.209Z,4.40
2017-10-28T08:45:51.236Z,6.85
2017-10-28T08:46:57.264Z,4.72
2017-10-28T08:48:03.308Z,5.25
2017-10-28T08:49:08.968Z,6.07
2017-10-28T08:50:15.043Z,4.05
2017-10-28T08:51:21.114Z,3.60
2017-10-28T08:52:27.161Z,5.57
2017-10-28T08:53:33.222Z,3.72
2017-10-28T08:54:39.310Z,6.82
2017-10-28T08:55:45.874Z,4.45
2017-10-28T08:56:51.964Z,4.45
2017-10-28T08:57:58.071Z,5.05
2017-10-28T08:59:04.148Z,3.80
2017-10-28T09:00:10.022Z,4.97
2017-10-28T09:01:15.873Z,5.22
2017-10-28T09:02:21.702Z,5.90
2017-10-28T09:03:27.755Z,5.47
2017-10-28T09:04:33.855Z,5.57
2017-10-28T09:05:40.107Z,8.45
2017-10-28T09:06:46.145Z,5.07
2017-10-28T09:07:52.176Z,3.62
2017-10-28T09:08:58.226Z,4.22
2017-10-28T09:10:03.937Z,4.93
2017-10-28T09:11:10.012Z,3.40
2017-10-28T09:12:15.672Z,4.85
2017-10-28T09:13:21.549Z,6.90
2017-10-28T09:14:27.993Z,4.10
2017-10-28T09:15:34.115Z,3.28
2017-10-28T09:16:40.709Z,3.87
2017-10-28T09:17:46.789Z,4.18
2017-10-28T09:18:56.042Z,5.20
2017-10-28T09:20:01.962Z,5.65
2017-10-28T09:21:08.031Z,4.40
2017-10-28T09:22:13.753Z,4.53
2017-10-28T09:26:32.387Z,4.82
2017-10-28T09:27:38.521Z,4.62
2017-10-28T09:28:45.412Z,4.65
2017-10-28T09:29:51.507Z,6.32
2017-10-28T09:32:38.262Z,6.62
2017-10-28T09:33:44.386Z,4.05
2017-10-28T09:34:50.614Z,3.15
2017-10-28T09:35:57.468Z,5.43
2017-10-28T09:37:06.113Z,4.68
2017-10-28T09:38:16.205Z,4.80
2017-10-28T09:39:25.390Z,3.97
2017-10-28T09:40:33.558Z,3.10
2017-10-28T09:41:40.288Z,4.47
2017-10-28T09:42:47.697Z,3.87
2017-10-28T09:43:57.263Z,8.95
2017-10-28T09:45:04.970Z,3.45
2017-10-28T09:46:12.219Z,5.53
2017-10-28T09:47:18.067Z,3.90
2017-10-28T09:48:24.102Z,4.47
2017-10-28T09:49:30.158Z,5.18
2017-10-28T09:50:36.214Z,2.92
2017-10-28T09:51:42.297Z,4.25
2017-10-28T09:52:48.347Z,5.28
2017-10-28T09:53:54.446Z,3.65
2017-10-28T09:55:00.307Z,5.47
2017-10-28T09:56:06.369Z,3.28
2017-10-28T09:57:13.218Z,3.28
2017-10-28T09:58:20.598Z,5.25
2017-10-28T09:59:27.611Z,4.57
2017-10-28T10:00:33.662Z,4.53
2017-10-28T10:01:40.319Z,4.90
2017-10-28T10:02:48.644Z,3.75
2017-10-28T10:03:54.744Z,4.45
2017-10-28T10:05:00.791Z,8.35
2017-10-28T10:06:06.863Z,5.37
2017-10-28T10:07:12.912Z,3.75
2017-10-28T10:08:18.962Z,4.80
2017-10-28T10:09:25.071Z,4.57
2017-10-28T10:10:31.117Z,5.15
2017-10-28T10:11:37.246Z,3.97
2017-10-28T10:12:43.345Z,5.65
2017-10-28T10:13:49.405Z,8.73
2017-10-28T10:14:55.466Z,4.95
2017-10-28T10:16:01.517Z,6.97
2017-10-28T10:17:07.560Z,4.50
2017-10-28T10:18:13.679Z,5.07
2017-10-28T10:19:28.304Z,8.85
2017-10-28T10:20:34.392Z,9.23
2017-10-28T10:21:42.671Z,7.15
2017-10-28T10:22:48.704Z,8.85
2017-10-28T10:23:54.747Z,5.47
2017-10-28T10:25:00.790Z,7.60
2017-10-28T10:26:06.863Z,9.85
2017-10-28T10:27:12.899Z,9.90
2017-10-28T10:28:19.235Z,5.97
2017-10-28T10:29:25.480Z,6.00
2017-10-28T10:30:31.845Z,7.95
2017-10-28T10:31:38.202Z,7.68
2017-10-28T10:32:44.240Z,8.43
2017-10-28T10:33:50.291Z,6.30
2017-10-28T10:34:56.319Z,9.20
2017-10-28T10:36:02.650Z,5.90
2017-10-28T10:37:08.775Z,6.50
2017-10-28T10:38:14.878Z,7.15
2017-10-28T10:39:20.912Z,7.53
2017-10-28T10:40:27.001Z,6.40
2017-10-28T10:41:33.057Z,6.70
2017-10-28T10:42:39.096Z,10.60
2017-10-28T10:43:45.200Z,7.05
2017-10-28T10:44:51.263Z,6.85
2017-10-28T10:45:57.790Z,8.60
2017-10-28T10:47:03.810Z,7.25
2017-10-28T10:48:09.887Z,12.23
2017-10-28T10:49:18.831Z,9.27
2017-10-28T10:50:24.728Z,9.43
2017-10-28T10:51:30.802Z,8.73
2017-10-28T10:52:37.008Z,7.03
2017-10-28T10:53:46.490Z,7.07
2017-10-28T10:54:58.269Z,10.55
2017-10-28T10:57:48.512Z,8.27
2017-10-28T10:58:55.737Z,8.65
2017-10-28T11:00:04.306Z,7.72
2017-10-28T11:02:52.473Z,6.43
2017-10-28T11:03:59.587Z,9.07
2017-10-28T11:05:06.013Z,8.10
2017-10-28T11:06:12.480Z,7.87
2017-10-28T11:07:19.265Z,7.07
2017-10-28T11:08:26.243Z,8.25
2017-10-28T11:09:32.442Z,8.63
2017-10-28T11:10:39.196Z,7.50
2017-10-28T11:11:45.438Z,7.37
2017-10-28T11:12:52.909Z,8.30
2017-10-28T11:13:59.723Z,7.53
2017-10-28T11:15:05.502Z,9.57
2017-10-28T11:16:11.612Z,8.52
2017-10-28T11:17:18.433Z,8.25
2017-10-28T11:18:26.614Z,9.48
2017-10-28T11:19:33.217Z,9.95
2017-10-28T11:20:39.310Z,10.10
2017-10-28T11:21:51.119Z,8.75
2017-10-28T11:22:57.799Z,8.88
2017-10-28T11:24:04.177Z,7.70
2017-10-28T11:25:10.388Z,9.07
2017-10-28T11:26:17.169Z,9.02
2017-10-28T11:27:23.584Z,7.75
2017-10-28T11:28:30.018Z,8.65
2017-10-28T11:29:36.095Z,7.12
2017-10-28T11:30:42.130Z,9.50
2017-10-28T11:31:50.165Z,7.68
2017-10-28T11:32:56.279Z,8.80
2017-10-28T11:34:03.129Z,9.10
2017-10-28T11:35:10.159Z,7.30
2017-10-28T11:36:18.266Z,8.68
2017-10-28T11:37:24.686Z,8.45
2017-10-28T11:38:31.272Z,7.12
2017-10-28T11:39:37.365Z,7.65
2017-10-28T11:40:44.122Z,7.50
2017-10-28T11:41:50.954Z,8.23
2017-10-28T11:43:02.831Z,8.13
2017-10-28T11:44:09.433Z,9.43
2017-10-28T11:45:16.305Z,8.32
2017-10-28T11:46:23.220Z,8.27
2017-10-28T11:49:30.126Z,11.75
2017-10-28T11:50:45.429Z,8.02
2017-10-28T11:53:54.015Z,7.10
2017-10-28T11:55:07.699Z,7.25
2017-10-28T11:56:13.804Z,7.70
2017-10-28T11:57:20.043Z,8.50
2017-10-28T12:09:24.122Z,9.30
2017-10-28T12:10:30.376Z,10.02
2017-10-28T12:11:36.474Z,6.75
2017-10-28T12:12:42.547Z,9.48
2017-10-28T12:13:48.599Z,9.68
2017-10-28T12:14:54.675Z,9.27
2017-10-28T12:16:00.979Z,19.30
2017-10-28T12:17:06.915Z,11.90
2017-10-28T12:18:12.997Z,7.32
2017-10-28T12:19:19.086Z,6.37
2017-10-28T12:20:25.158Z,12.30
2017-10-28T12:21:31.273Z,11.27
2017-10-28T12:22:37.333Z,15.10
2017-10-28T12:23:44.158Z,7.30
2017-10-28T12:24:54.062Z,7.15
2017-10-28T12:26:01.364Z,7.43
2017-10-28T12:27:08.830Z,6.43
2017-10-28T12:28:15.467Z,6.72
2017-10-28T12:29:21.698Z,7.97
2017-10-28T12:30:27.745Z,6.50
2017-10-28T12:31:33.840Z,6.45
2017-10-28T12:32:39.923Z,7.85
2017-10-28T12:33:45.977Z,7.55
2017-10-28T12:34:52.028Z,9.73
2017-10-28T12:35:58.118Z,6.60
2017-10-28T12:37:04.193Z,7.10
2017-10-28T12:38:10.859Z,7.72
2017-10-28T12:39:16.899Z,7.53
2017-10-28T12:40:22.918Z,7.20
2017-10-28T12:41:28.997Z,9.60
2017-10-28T12:42:35.094Z,8.25
2017-10-28T12:43:41.164Z,6.80
2017-10-28T12:44:47.208Z,7.12
2017-10-28T12:45:55.450Z,7.40
2017-10-28T12:47:02.512Z,7.75
2017-10-28T12:48:08.601Z,7.32
2017-10-28T12:49:14.714Z,8.43
2017-10-28T12:50:20.768Z,9.20
2017-10-28T12:51:26.861Z,12.30
2017-10-28T12:52:32.954Z,8.73
2017-10-28T12:53:39.041Z,6.90
2017-10-28T12:54:45.094Z,6.40
2017-10-28T12:55:51.154Z,8.90
2017-10-28T12:56:57.236Z,8.95
2017-10-28T12:58:03.339Z,7.78
2017-10-28T12:59:09.403Z,8.02
2017-10-28T13:00:15.266Z,7.28
2017-10-28T13:01:21.344Z,7.22
2017-10-28T13:02:27.412Z,9.10
2017-10-28T13:03:33.498Z,7.32
2017-10-28T13:04:39.564Z,7.10
2017-10-28T13:05:45.665Z,7.87
2017-10-28T13:06:59.704Z,7.70
2017-10-28T13:08:05.793Z,7.50
2017-10-28T13:09:11.920Z,14.30
2017-10-28T13:10:18.017Z,7.57
2017-10-28T13:11:24.121Z,8.93
2017-10-28T13:12:30.239Z,6.50
2017-10-28T13:13:36.316Z,9.23
2017-10-28T13:14:42.383Z,7.20
2017-10-28T13:15:48.456Z,7.18
2017-10-28T13:16:54.541Z,9.48
2017-10-28T13:18:00.652Z,7.05
2017-10-28T13:19:07.099Z,6.60
2017-10-28T13:20:13.175Z,7.28
2017-10-28T13:21:19.352Z,6.50
2017-10-28T13:22:25.469Z,6.65
2017-10-28T13:23:31.595Z,9.80
2017-10-28T13:24:39.721Z,9.13
2017-10-28T13:25:45.858Z,12.82
2017-10-28T13:26:52.521Z,8.50
2017-10-28T13:27:59.431Z,6.45
2017-10-28T13:29:08.574Z,7.65
2017-10-28T13:30:14.683Z,11.43
2017-10-28T13:31:20.765Z,6.82
2017-10-28T13:32:26.820Z,7.53
2017-10-28T13:33:32.929Z,8.20
2017-10-28T13:34:39.021Z,7.15
2017-10-28T13:35:45.099Z,7.20
2017-10-28T13:36:51.228Z,9.27
2017-10-28T13:37:57.718Z,7.50
2017-10-28T13:39:03.457Z,9.02
2017-10-28T13:40:09.558Z,7.25
2017-10-28T13:41:15.651Z,7.37
2017-10-28T13:42:21.731Z,9.02
2017-10-28T13:43:27.823Z,8.13
2017-10-28T13:44:33.922Z,7.18
2017-10-28T13:45:40.008Z,8.45
2017-10-28T13:46:46.117Z,7.85
2017-10-28T13:47:52.200Z,7.03
2017-10-28T13:48:58.443Z,7.20
2017-10-28T13:50:06.354Z,8.23
2017-10-28T13:51:12.475Z,8.70
2017-10-28T13:52:17.809Z,7.70
2017-10-28T13:53:23.904Z,7.68
2017-10-28T13:54:30.030Z,7.35
2017-10-28T13:55:38.001Z,7.80
2017-10-28T13:56:44.176Z,7.43
2017-10-28T13:57:49.910Z,7.90
2017-10-28T13:58:56.016Z,9.48
2017-10-28T14:00:05.544Z,7.93
2017-10-28T14:01:11.613Z,7.85
2017-10-28T14:02:17.715Z,9.15
2017-10-28T14:03:23.824Z,8.93
2017-10-28T14:04:29.947Z,14.18
2017-10-28T14:05:36.063Z,11.52
2017-10-28T14:06:42.194Z,16.40
2017-10-28T14:07:48.233Z,10.00
2017-10-28T14:08:54.307Z,9.95
2017-10-28T14:10:06.403Z,8.43
2017-10-28T14:11:14.179Z,9.18
2017-10-28T14:12:20.233Z,9.90
2017-10-28T14:13:26.267Z,8.55
2017-10-28T14:14:32.344Z,7.35
2017-10-28T14:15:38.402Z,8.60
2017-10-28T14:16:44.421Z,7.80
2017-10-28T14:17:50.470Z,9.00
2017-10-28T14:18:56.493Z,9.15
2017-10-28T14:20:02.626Z,7.95
2017-10-28T14:21:08.680Z,8.07
2017-10-28T14:22:14.723Z,7.80
2017-10-28T14:23:20.766Z,8.85
2017-10-28T14:24:26.947Z,8.60
2017-10-28T14:25:33.084Z,7.87
2017-10-28T14:26:39.232Z,8.38
2017-10-28T14:27:45.306Z,8.10
2017-10-28T14:28:51.412Z,10.27
2017-10-28T14:29:57.551Z,10.95
2017-10-28T14:31:04.724Z,10.15
2017-10-28T14:32:10.782Z,8.15
2017-10-28T14:33:16.810Z,8.48
2017-10-28T14:34:22.864Z,10.15
2017-10-28T14:35:28.959Z,8.70
2017-10-28T14:36:35.033Z,9.07
2017-10-28T14:37:41.090Z,9.27
2017-10-28T14:38:47.148Z,8.90
2017-10-28T14:39:53.259Z,12.30
2017-10-28T14:40:59.366Z,8.43
2017-10-28T14:42:05.492Z,9.10
2017-10-28T14:43:11.591Z,9.77
2017-10-28T15:01:27.366Z,8.70
2017-10-28T15:02:36.739Z,9.93
2017-10-28T15:03:44.127Z,8.13
2017-10-28T15:04:50.994Z,7.62
2017-10-28T15:05:57.101Z,8.75
2017-10-28T15:07:03.245Z,8.70
2017-10-28T15:08:09.301Z,11.30
2017-10-28T15:09:15.439Z,8.70
2017-10-28T15:12:03.751Z,12.80
2017-10-28T15:13:10.008Z,9.82
2017-10-28T15:14:16.364Z,11.65
2017-10-28T15:15:22.583Z,7.75
2017-10-28T15:16:28.707Z,7.95
2017-10-28T15:17:34.871Z,9.80
2017-10-28T15:18:41.054Z,11.40
2017-10-28T15:19:47.247Z,8.10
2017-10-28T15:20:59.781Z,8.00
2017-10-28T15:22:07.419Z,8.18
2017-10-28T15:23:14.336Z,7.28
2017-10-28T15:24:21.144Z,11.63
2017-10-28T15:25:27.306Z,8.05
2017-10-28T15:26:33.639Z,8.40